createdAt,value
2019-04-22T00:02:49.041Z,26.77
2019-04-22T00:05:25.496Z,27.27
2019-04-22T00:08:10.580Z,27.07
2019-04-22T00:10:58.941Z,25.88
2019-04-22T00:13:20.114Z,26.65
2019-04-22T00:15:37.105Z,26.62
2019-04-22T00:18:40.544Z,22.50
2019-04-22T00:20:58.255Z,25.25
2019-04-22T00:26:03.886Z,26.25
2019-04-22T00:28:41.171Z,26.10
2019-04-22T00:33:43.701Z,25.77
2019-04-22T00:36:08.715Z,27.67
2019-04-22T00:38:44.431Z,28.60
2019-04-22T00:41:17.556Z,29.20
2019-04-22T00:43:45.813Z,26.75
2019-04-22T00:46:15.580Z,31.25
2019-04-22T00:49:09.575Z,27.70
2019-04-22T00:53:48.101Z,31.48
2019-04-22T00:58:47.050Z,26.77
2019-04-22T01:01:19.205Z,26.40
2019-04-22T01:03:58.381Z,25.97
2019-04-22T01:06:20.411Z,32.07
2019-04-22T01:16:22.613Z,31.90
2019-04-22T01:18:53.800Z,32.17
2019-04-22T01:21:37.117Z,33.23
2019-04-22T01:23:57.550Z,31.20
2019-04-22T01:26:25.551Z,30.82
2019-04-22T01:28:56.373Z,29.27
2019-04-22T01:31:19.709Z,35.78
2019-04-22T01:33:58.627Z,29.25
2019-04-22T01:36:38.688Z,29.02
2019-04-22T01:39:10.784Z,31.42
2019-04-22T01:46:50.632Z,26.77
2019-04-22T01:49:21.475Z,27.60
2019-04-22T01:54:29.714Z,30.33
2019-04-22T01:56:55.292Z,31.17
2019-04-22T01:59:18.297Z,30.37
2019-04-22T02:02:00.564Z,34.70
2019-04-22T02:04:33.684Z,30.00
2019-04-22T02:06:57.623Z,39.98
2019-04-22T02:09:38.629Z,33.05
2019-04-22T02:17:09.221Z,30.17
2019-04-22T02:19:35.693Z,30.97
2019-04-22T02:22:11.629Z,32.28
2019-04-22T02:27:10.947Z,29.18
2019-04-22T02:29:44.348Z,37.95
2019-04-22T02:36:08.945Z,32.38
2019-04-22T02:38:46.616Z,35.35
2019-04-22T02:48:49.792Z,37.70
2019-04-22T02:56:23.078Z,38.60
2019-04-22T02:58:46.883Z,38.83
2019-04-22T03:01:13.966Z,32.17
2019-04-22T03:08:45.687Z,33.60
2019-04-22T03:11:18.987Z,32.48
2019-04-22T03:21:31.750Z,33.88
2019-04-22T03:28:58.041Z,35.73
2019-04-22T03:39:45.912Z,34.30
2019-04-22T03:54:43.711Z,38.42
2019-04-22T03:57:26.464Z,37.23
2019-04-22T03:59:43.991Z,42.88
2019-04-22T04:02:13.468Z,39.08
2019-04-22T04:04:37.123Z,42.50
2019-04-22T04:09:39.150Z,44.55
2019-04-22T04:14:46.310Z,41.20
2019-04-22T04:20:03.284Z,46.98
2019-04-22T04:22:23.485Z,40.92
2019-04-22T04:27:32.851Z,41.08
2019-04-22T04:32:38.906Z,39.27
2019-04-22T04:37:40.963Z,49.88
2019-04-22T04:40:12.633Z,42.17
2019-04-22T04:47:38.324Z,43.00
2019-04-22T04:50:01.485Z,42.75
2019-04-22T04:52:39.647Z,47.90
2019-04-22T04:57:41.142Z,51.92
2019-04-22T05:02:40.943Z,45.53
2019-04-22T05:05:14.513Z,46.68
2019-04-22T05:10:13.762Z,44.55
2019-04-22T05:15:15.378Z,37.30
2019-04-22T05:20:13.495Z,43.55
2019-04-22T05:30:23.704Z,32.60
2019-04-22T05:32:41.727Z,33.75
2019-04-22T05:35:14.509Z,33.45
2019-04-22T05:37:41.563Z,31.05
2019-04-22T05:40:16.426Z,27.48
2019-04-22T05:42:46.322Z,31.80
2019-04-22T05:45:17.893Z,30.72
2019-04-22T05:47:46.320Z,27.20
2019-04-22T05:50:15.569Z,29.27
2019-04-22T05:57:51.034Z,25.57
2019-04-22T06:00:25.795Z,26.55
2019-04-22T06:02:53.871Z,29.30
2019-04-22T06:07:53.773Z,26.07
2019-04-22T06:10:29.056Z,26.25
2019-04-22T06:12:58.207Z,24.40
2019-04-22T06:15:30.904Z,24.18
2019-04-22T06:20:37.019Z,23.32
2019-04-22T06:25:55.010Z,24.27
2019-04-22T06:28:13.610Z,19.45
2019-04-22T06:30:46.651Z,20.08
2019-04-22T06:33:15.307Z,19.62
2019-04-22T06:35:56.236Z,19.15
2019-04-22T06:40:46.846Z,19.42
2019-04-22T06:45:44.856Z,16.25
2019-04-22T06:48:20.854Z,17.42
2019-04-22T06:50:50.698Z,16.35
2019-04-22T06:53:16.857Z,12.15
2019-04-22T06:55:51.675Z,11.55
2019-04-22T06:58:24.572Z,13.00
2019-04-22T07:00:52.138Z,11.85
2019-04-22T07:05:53.907Z,8.35
2019-04-22T07:08:59.544Z,10.13
2019-04-22T07:10:58.398Z,10.72
2019-04-22T07:16:18.791Z,8.98
2019-04-22T07:18:38.639Z,16.10
2019-04-22T07:21:30.443Z,9.35
2019-04-22T07:23:45.770Z,13.45
2019-04-22T07:26:06.050Z,8.18
2019-04-22T07:28:29.029Z,11.38
2019-04-22T07:31:10.315Z,7.83
2019-04-22T07:36:30.900Z,8.90
2019-04-22T07:38:38.952Z,11.57
2019-04-22T07:41:12.394Z,7.53
2019-04-22T07:44:00.700Z,12.30
2019-04-22T07:46:13.739Z,9.23
2019-04-22T07:51:20.443Z,10.45
2019-04-22T07:53:52.284Z,7.85
2019-04-22T07:56:19.055Z,10.45
2019-04-22T07:58:49.137Z,8.35
2019-04-22T08:04:15.997Z,8.35
2019-04-22T08:06:30.975Z,8.60
2019-04-22T08:09:01.900Z,8.78
2019-04-22T08:11:46.996Z,7.25
2019-04-22T08:16:28.469Z,7.63
2019-04-22T08:19:14.626Z,9.93
2019-04-22T08:21:38.386Z,6.28
2019-04-22T08:24:10.753Z,6.83
2019-04-22T08:26:38.229Z,8.60
2019-04-22T08:39:13.642Z,6.87
2019-04-22T08:41:37.437Z,8.68
2019-04-22T08:44:07.652Z,5.47
2019-04-22T08:47:07.142Z,8.47
2019-04-22T08:49:10.249Z,9.20
2019-04-22T08:51:46.753Z,8.30
2019-04-22T08:54:20.013Z,7.67
2019-04-22T08:59:15.449Z,5.92
2019-04-22T09:01:53.439Z,7.20
2019-04-22T09:04:16.628Z,9.70
2019-04-22T09:07:07.197Z,7.87
2019-04-22T09:09:26.644Z,9.25
2019-04-22T09:12:06.483Z,5.87
2019-04-22T09:14:45.857Z,6.12
2019-04-22T09:17:07.463Z,7.15
2019-04-22T09:19:30.219Z,7.10
2019-04-22T09:24:38.712Z,6.17
2019-04-22T09:34:41.689Z,6.80
2019-04-22T09:39:41.514Z,8.08
2019-04-22T09:44:40.241Z,7.03
2019-04-22T09:47:12.821Z,7.35
2019-04-22T09:52:13.317Z,8.55
2019-04-22T09:59:54.441Z,7.40
2019-04-22T10:04:47.921Z,9.63
2019-04-22T10:07:21.002Z,8.05
2019-04-22T10:12:19.348Z,10.03
2019-04-22T10:14:49.706Z,6.65
2019-04-22T10:17:21.766Z,12.70
2019-04-22T10:22:29.144Z,9.85
2019-04-22T10:24:53.596Z,7.83
2019-04-22T10:29:59.781Z,7.97
2019-04-22T10:32:27.047Z,7.87
2019-04-22T10:34:40.893Z,6.92
2019-04-22T10:37:10.880Z,7.25
2019-04-22T10:39:45.851Z,6.90
2019-04-22T10:42:09.087Z,8.40
2019-04-22T10:44:39.260Z,9.23
2019-04-22T10:47:09.697Z,7.90
2019-04-22T10:49:40.299Z,9.60
2019-04-22T10:52:10.820Z,7.25
2019-04-22T10:54:41.268Z,8.60
2019-04-22T10:57:18.150Z,8.15
2019-04-22T10:59:47.635Z,8.18
2019-04-22T11:02:17.407Z,13.43
2019-04-22T11:04:48.144Z,8.38
2019-04-22T11:07:19.390Z,5.53
2019-04-22T11:09:58.184Z,7.45
2019-04-22T11:12:23.382Z,9.00
2019-04-22T11:17:21.671Z,8.50
2019-04-22T11:19:53.220Z,8.93
2019-04-22T11:22:27.563Z,25.65
2019-04-22T11:24:56.346Z,8.68
2019-04-22T11:27:25.345Z,8.07
2019-04-22T11:29:55.380Z,7.53
2019-04-22T11:32:24.834Z,6.65
2019-04-22T11:34:54.147Z,6.97
2019-04-22T11:37:24.768Z,7.35
2019-04-22T11:40:02.140Z,6.75
2019-04-22T11:42:25.964Z,29.30
2019-04-22T11:44:55.393Z,6.53
2019-04-22T11:47:25.615Z,4.70
2019-04-22T11:49:55.075Z,9.47
2019-04-22T11:52:24.734Z,9.70
2019-04-22T11:54:54.878Z,4.25
2019-04-22T11:57:25.370Z,4.63
2019-04-22T11:59:54.796Z,4.85
2019-04-22T12:02:27.045Z,7.08
2019-04-22T12:04:57.875Z,4.00
2019-04-22T12:07:31.052Z,4.05
2019-04-22T12:09:59.772Z,5.50
2019-04-22T12:12:29.920Z,5.58
2019-04-22T12:15:00.766Z,4.10
2019-04-22T12:17:31.875Z,6.03
2019-04-22T12:20:05.077Z,4.03
2019-04-22T12:22:33.946Z,7.70
2019-04-22T12:25:08.134Z,7.67
2019-04-22T12:27:38.977Z,4.23
2019-04-22T12:32:41.189Z,4.92
2019-04-22T12:35:11.810Z,6.00
2019-04-22T12:37:49.591Z,3.53
2019-04-22T12:42:42.384Z,7.62
2019-04-22T12:45:12.365Z,5.30
2019-04-22T12:47:42.159Z,6.20
2019-04-22T12:50:21.762Z,10.08
2019-04-22T12:52:51.514Z,3.92
2019-04-22T12:55:17.507Z,6.12
2019-04-22T12:57:48.361Z,4.87
2019-04-22T13:00:20.431Z,6.15
2019-04-22T13:02:51.231Z,4.60
2019-04-22T13:05:22.786Z,5.40
2019-04-22T13:07:53.418Z,9.53
2019-04-22T13:10:24.160Z,5.37
2019-04-22T13:15:24.406Z,8.98
2019-04-22T13:18:04.619Z,5.00
2019-04-22T13:20:26.068Z,6.00
2019-04-22T13:22:57.029Z,4.35
2019-04-22T13:25:28.837Z,6.97
2019-04-22T13:27:57.672Z,4.92
2019-04-22T13:30:30.365Z,6.00
2019-04-22T13:33:00.868Z,4.83
2019-04-22T13:35:31.747Z,4.87
2019-04-22T13:38:01.320Z,6.97
2019-04-22T13:40:30.857Z,3.95
2019-04-22T13:43:00.776Z,5.10
2019-04-22T13:45:30.162Z,3.63
2019-04-22T13:48:16.682Z,4.85
2019-04-22T13:55:59.244Z,3.65
2019-04-22T13:58:15.797Z,4.00
2019-04-22T14:00:36.263Z,4.28
2019-04-22T14:03:18.242Z,8.50
2019-04-22T14:05:49.714Z,4.92
2019-04-22T14:08:20.196Z,6.80
2019-04-22T14:10:50.273Z,4.05
2019-04-22T14:13:19.835Z,4.33
2019-04-22T14:15:50.796Z,3.87
2019-04-22T14:18:21.209Z,5.67
2019-04-22T14:20:51.153Z,4.35
2019-04-22T14:23:20.647Z,3.57
2019-04-22T14:25:50.829Z,4.95
2019-04-22T14:30:50.638Z,3.35
2019-04-22T14:33:20.293Z,2.67
2019-04-22T14:35:51.901Z,5.87
2019-04-22T14:38:21.956Z,4.87
2019-04-22T14:40:52.015Z,4.97
2019-04-22T14:43:49.310Z,4.60
2019-04-22T14:46:33.543Z,4.42
2019-04-22T14:48:49.763Z,5.42
2019-04-22T14:51:11.622Z,8.13
2019-04-22T14:53:44.904Z,6.47
2019-04-22T14:55:58.287Z,7.35
2019-04-22T14:58:31.061Z,10.25
2019-04-22T15:01:01.210Z,5.50
2019-04-22T15:03:38.146Z,5.72
2019-04-22T15:06:06.334Z,3.85
2019-04-22T15:08:37.098Z,8.23
2019-04-22T15:11:08.729Z,3.50
2019-04-22T15:13:39.103Z,6.90
2019-04-22T15:16:26.057Z,4.33
2019-04-22T15:18:59.910Z,5.00
2019-04-22T15:21:30.103Z,5.12
2019-04-22T15:24:02.402Z,5.78
2019-04-22T15:26:32.740Z,5.12
2019-04-22T15:29:03.146Z,4.00
2019-04-22T15:31:33.251Z,5.87
2019-04-22T15:34:02.774Z,4.47
2019-04-22T15:36:32.406Z,5.12
2019-04-22T15:39:03.070Z,6.73
2019-04-22T15:41:34.942Z,7.03
2019-04-22T15:44:05.942Z,8.60
2019-04-22T15:46:37.035Z,6.25
2019-04-22T15:49:06.662Z,5.37
2019-04-22T15:51:36.406Z,5.62
2019-04-22T15:54:05.975Z,4.10
2019-04-22T15:56:37.053Z,6.08
2019-04-22T15:59:28.707Z,6.50
2019-04-22T16:01:41.034Z,4.92
2019-04-22T16:04:08.820Z,3.62
2019-04-22T16:06:39.096Z,3.60
2019-04-22T16:09:11.048Z,7.25
2019-04-22T16:11:42.330Z,3.90
2019-04-22T16:14:15.152Z,7.55
2019-04-22T16:16:43.037Z,4.42
2019-04-22T16:19:12.388Z,4.67
2019-04-22T16:21:50.039Z,4.83
2019-04-22T16:24:31.898Z,9.40
2019-04-22T16:27:04.551Z,6.70
2019-04-22T16:29:34.076Z,4.00
2019-04-22T16:32:03.478Z,5.30
2019-04-22T16:34:33.990Z,7.40
2019-04-22T16:39:48.539Z,6.45
2019-04-22T16:42:28.926Z,7.63
2019-04-22T16:44:49.487Z,5.85
2019-04-22T16:47:19.714Z,4.10
2019-04-22T16:49:49.755Z,5.20
2019-04-22T16:52:19.241Z,10.07
2019-04-22T16:54:48.659Z,7.70
2019-04-22T16:57:19.772Z,4.05
2019-04-22T16:59:50.663Z,4.25
2019-04-22T17:02:22.349Z,3.85
2019-04-22T17:05:02.834Z,5.20
2019-04-22T17:07:32.235Z,5.07
2019-04-22T17:10:01.953Z,4.20
2019-04-22T17:12:44.344Z,8.13
2019-04-22T17:15:08.238Z,6.03
2019-04-22T17:17:36.323Z,5.20
2019-04-22T17:20:07.237Z,5.10
2019-04-22T17:22:37.702Z,4.22
2019-04-22T17:25:08.678Z,3.05
2019-04-22T17:27:39.285Z,6.47
2019-04-22T17:30:10.450Z,8.60
2019-04-22T17:32:42.847Z,4.10
2019-04-22T17:35:12.433Z,6.22
2019-04-22T17:37:42.903Z,9.53
2019-04-22T17:40:30.155Z,4.13
2019-04-22T17:43:06.667Z,4.97
2019-04-22T17:45:49.257Z,3.05
2019-04-22T17:48:40.761Z,4.05
2019-04-22T17:51:16.321Z,6.67
2019-04-22T17:53:46.416Z,8.10
2019-04-22T17:56:16.376Z,4.00
2019-04-22T18:01:25.569Z,4.55
2019-04-22T18:03:39.185Z,3.98
2019-04-22T18:06:09.313Z,3.87
2019-04-22T18:08:54.968Z,3.07
2019-04-22T18:11:33.442Z,4.33
2019-04-22T18:14:01.778Z,4.42
2019-04-22T18:16:34.646Z,3.05
2019-04-22T18:18:59.575Z,4.28
2019-04-22T18:23:52.875Z,5.00
2019-04-22T18:29:00.882Z,5.75
2019-04-22T18:31:28.649Z,4.00
2019-04-22T18:34:01.935Z,3.27
2019-04-22T18:36:36.000Z,5.95
2019-04-22T18:39:15.187Z,6.62
2019-04-22T18:41:34.231Z,4.62
2019-04-22T18:44:09.727Z,4.70
2019-04-22T18:46:37.052Z,5.17
2019-04-22T18:49:08.093Z,9.28
2019-04-22T18:51:46.736Z,4.70
2019-04-22T18:54:24.266Z,6.53
2019-04-22T18:56:50.501Z,4.65
2019-04-22T18:59:16.033Z,6.05
2019-04-22T19:01:39.680Z,3.37
2019-04-22T19:04:17.399Z,6.10
2019-04-22T19:06:58.753Z,7.15
2019-04-22T19:09:40.440Z,11.93
2019-04-22T19:12:15.264Z,5.22
2019-04-22T19:14:45.487Z,4.28
2019-04-22T19:17:19.157Z,7.85
2019-04-22T19:22:03.414Z,4.58
2019-04-22T19:24:34.359Z,6.65
2019-04-22T19:27:09.792Z,6.58
2019-04-22T19:29:49.288Z,5.42
2019-04-22T19:32:14.448Z,6.87
2019-04-22T19:34:42.799Z,6.35
2019-04-22T19:37:13.357Z,3.75
2019-04-22T19:39:52.882Z,5.10
2019-04-22T19:42:28.211Z,5.95
2019-04-22T19:44:53.194Z,9.08
2019-04-22T19:47:38.633Z,6.65
2019-04-22T19:49:57.978Z,6.12
2019-04-22T19:52:25.664Z,9.00
2019-04-22T19:54:55.025Z,7.92
2019-04-22T19:57:22.606Z,6.37
2019-04-22T19:59:54.202Z,5.47
2019-04-22T20:02:27.144Z,8.90
2019-04-22T20:05:07.718Z,7.30
2019-04-22T20:07:40.040Z,3.98
2019-04-22T20:10:17.245Z,6.60
2019-04-22T20:12:42.803Z,5.97
2019-04-22T20:15:13.874Z,4.95
2019-04-22T20:18:07.541Z,8.20
2019-04-22T20:20:25.921Z,6.58
2019-04-22T20:22:43.176Z,6.45
2019-04-22T20:25:07.635Z,6.17
2019-04-22T20:27:54.712Z,6.62
2019-04-22T20:30:23.528Z,6.87
2019-04-22T20:32:51.169Z,5.10
2019-04-22T20:35:32.740Z,3.90
2019-04-22T20:37:56.816Z,6.25
2019-04-22T20:43:10.393Z,3.93
2019-04-22T20:45:35.162Z,5.87
2019-04-22T20:47:53.941Z,7.17
2019-04-22T20:53:22.976Z,4.90
2019-04-22T20:55:44.703Z,4.78
2019-04-22T20:58:15.060Z,4.12
2019-04-22T21:00:45.324Z,7.15
2019-04-22T21:03:10.376Z,5.92
2019-04-22T21:05:40.523Z,4.58
2019-04-22T21:08:24.367Z,7.85
2019-04-22T21:10:45.113Z,4.25
2019-04-22T21:15:57.757Z,3.93
2019-04-22T21:18:22.164Z,7.17
2019-04-22T21:20:56.253Z,5.75
2019-04-22T21:23:35.439Z,9.10
2019-04-22T21:26:13.614Z,3.27
2019-04-22T21:28:42.993Z,4.60
2019-04-22T21:31:19.159Z,4.87
2019-04-22T21:33:48.745Z,10.75
2019-04-22T21:36:24.857Z,4.33
2019-04-22T21:38:48.082Z,4.10
2019-04-22T21:41:17.723Z,4.42
2019-04-22T21:43:53.735Z,4.05
2019-04-22T21:46:23.228Z,3.40
2019-04-22T21:48:53.072Z,5.70
2019-04-22T21:51:25.720Z,5.17
2019-04-22T21:56:40.991Z,10.25
2019-04-22T21:59:02.074Z,4.05
2019-04-22T22:01:50.004Z,3.47
2019-04-22T22:04:13.712Z,3.90
2019-04-22T22:06:33.302Z,4.00
2019-04-22T22:09:18.931Z,4.83
2019-04-22T22:11:41.764Z,2.87
2019-04-22T22:14:13.589Z,7.78
2019-04-22T22:16:38.407Z,9.85
2019-04-22T22:19:20.787Z,6.62
2019-04-22T22:21:57.042Z,2.30
2019-04-22T22:24:22.874Z,3.57
2019-04-22T22:26:50.202Z,4.22
2019-04-22T22:32:02.730Z,4.78
2019-04-22T22:34:39.502Z,5.67
2019-04-22T22:36:53.015Z,4.47
2019-04-22T22:39:22.647Z,5.33
2019-04-22T22:41:41.886Z,5.15
2019-04-22T22:44:18.309Z,3.75
2019-04-22T22:46:59.117Z,9.38
2019-04-22T22:49:37.624Z,5.15
2019-04-22T22:52:30.849Z,7.05
2019-04-22T22:54:37.417Z,4.17
2019-04-22T22:57:16.839Z,4.40
2019-04-22T22:59:38.360Z,4.47
2019-04-22T23:02:08.064Z,4.90
2019-04-22T23:04:57.440Z,4.87
2019-04-22T23:07:17.896Z,6.03
2019-04-22T23:09:43.717Z,6.35
2019-04-22T23:14:46.626Z,4.97
2019-04-22T23:17:03.922Z,4.37
2019-04-22T23:19:28.046Z,5.78
2019-04-22T23:22:05.244Z,6.72
2019-04-22T23:27:29.385Z,6.03
2019-04-22T23:29:55.564Z,8.05
2019-04-22T23:32:34.809Z,2.98
2019-04-22T23:35:15.277Z,3.67
2019-04-22T23:37:44.864Z,6.28
2019-04-22T23:40:24.303Z,3.77
2019-04-22T23:45:23.617Z,5.05
2019-04-22T23:47:39.129Z,3.90
2019-04-22T23:50:24.468Z,3.05
2019-04-22T23:52:53.138Z,9.18
2019-04-22T23:55:26.070Z,6.03
2019-04-22T23:57:57.031Z,4.55
